• Join FlightAware (Why Join?)
  • Login
  • US Flag 
06:20AM EST


 

Airport Tracker/Info


-or-


 

Live Flight TrackerFlight Track Log ✈ DAL3673 ✈ 11-Apr-2013 ✈ KMSP - KLSE

Flight Track Log - Related Links

Times and Time Zones

All times are in EDT time to prevent confusion due to time zone crossing. See the DAL3673 flight status page for this flight to view local times or setup timezone preferences in your user account.

Time Position Orientation Groundspeed Altitude Reporting Facility
EDT Latitude Longitude Course Direction KTS MPH feet Rate Location/Type
04:03PM 44.8625 -93.1803 126° Southeast 166 191 2,400  Level FAA TRACON SMA TRACON (SMA)
04:03PM 44.8533 -93.1625 126° Southeast 178 205 3,600 3,300 Climbing FAA TRACON SMA TRACON (SMA)
04:04PM 44.8425 -93.1408 125° Southeast 179 206 4,600 1,902 Climbing FAA TRACON SMA TRACON (SMA)
04:04PM 44.8336 -93.1197 121° Southeast 194 223 4,900 1,500 Climbing FAA TRACON SMA TRACON (SMA)
04:04PM 44.8233 -93.0961 122° Southeast 221 254 5,600 2,049 Climbing FAA TRACON SMA TRACON (SMA)
04:05PM 44.8092 -93.0658 123° Southeast 245 282 6,300 2,000 Climbing FAA TRACON SMA TRACON (SMA)
04:05PM 44.7931 -93.0450 137° Southeast 254 292 6,900 2,154 Climbing FAA TRACON SMA TRACON (SMA)
04:05PM 44.7764 -93.0228 137° Southeast 265 305 7,700 2,634 Climbing FAA TRACON SMA TRACON (SMA)
04:06PM 44.7561 -92.9950 136° Southeast 263 303 8,700 2,250 Climbing FAA TRACON SMA TRACON (SMA)
04:06PM 44.7397 -92.9728 136° Southeast 265 305 9,200 1,650 Climbing FAA TRACON SMA TRACON (SMA)
04:06PM 44.7225 -92.9497 136° Southeast 275 316 9,800 2,100 Climbing FAA TRACON SMA TRACON (SMA)
04:07PM 44.7000 -92.9200 137° Southeast 284 327 10,600 1,650 Climbing FAA TRACON SMA TRACON (SMA)
04:07PM 44.6825 -92.8956 135° Southeast 289 333 10,900 462 Climbing FAA TRACON SMA TRACON (SMA)
04:07PM 44.6636 -92.8697 136° Southeast 304 350 10,900  Level FAA TRACON SMA TRACON (SMA)
04:08PM 44.6381 -92.8364 137° Southeast 322 371 10,900  Level FAA TRACON SMA TRACON (SMA)
04:08PM 44.6200 -92.8058 130° Southeast 332 382 10,900  Level FAA TRACON SMA TRACON (SMA)
04:08PM 44.6044 -92.7717 123° Southeast 336 387 10,900  Level FAA TRACON SMA TRACON (SMA)
04:09PM 44.5847 -92.7292 123° Southeast 338 389 10,900  Level FAA TRACON SMA TRACON (SMA)
04:09PM 44.5689 -92.6950 123° Southeast 338 389 10,900  Level FAA TRACON SMA TRACON (SMA)
04:09PM 44.5528 -92.6614 124° Southeast 339 390 10,900  Level FAA TRACON SMA TRACON (SMA)
04:10PM 44.5328 -92.6178 123° Southeast 343 395 10,900  Level FAA TRACON SMA TRACON (SMA)
04:10PM 44.5169 -92.5831 123° Southeast 344 396 10,900  Level FAA TRACON SMA TRACON (SMA)
04:10PM 44.4981 -92.5392 121° Southeast 344 396 10,900  Level FAA TRACON SMA TRACON (SMA)
04:11PM 44.4819 -92.5044 123° Southeast 345 397 10,900  Level FAA TRACON SMA TRACON (SMA)
04:11PM 44.4661 -92.4694 122° Southeast 345 397 10,900  Level FAA TRACON SMA TRACON (SMA)
04:11PM 44.4497 -92.4347 123° Southeast 346 398 10,900  Level FAA TRACON SMA TRACON (SMA)
04:12PM 44.4289 -92.3919 124° Southeast 346 398 10,900  Level FAA TRACON SMA TRACON (SMA)
04:12PM 44.4128 -92.3572 123° Southeast 347 399 10,900  Level FAA TRACON SMA TRACON (SMA)
04:12PM 44.3964 -92.3219 123° Southeast 347 399 10,900  Level FAA TRACON SMA TRACON (SMA)
04:13PM 44.3783 -92.2761 119° Southeast 350 403 10,900  Level FAA TRACON SMA TRACON (SMA)
04:13PM 44.3614 -92.2417 125° Southeast 348 400 10,900  Level FAA TRACON SMA TRACON (SMA)
04:13PM 44.3453 -92.2086 124° Southeast 340 391 10,900  Level FAA TRACON SMA TRACON (SMA)
04:14PM 44.3247 -92.1700 127° Southeast 326 375 10,900  Level FAA TRACON SMA TRACON (SMA)
04:14PM 44.3131 -92.1344 115° Southeast 322 371 10,900  Level FAA TRACON SMA TRACON (SMA)
04:14PM 44.2956 -92.1050 130° Southeast 320 368 10,900 65 Level FAA TRACON SMA TRACON (SMA)
04:16PM 44.2339 -91.9897 127° Southeast 319 367 11,000 -358 Climbing Minneapolis Center
04:17PM 44.2222 -91.8681 98° East 289 333 10,100 -1,122 Descending Minneapolis Center
04:18PM 44.2125 -91.7672 98° East 269 310 8,700 -1,561 Descending Minneapolis Center
04:19PM 44.2039 -91.6692 97° East 259 298 6,900 -1,317 Descending Minneapolis Center
04:20PM 44.1947 -91.5664 97° East 249 287 6,000 -537 Descending Minneapolis Center
04:21PM 44.1886 -91.4814 96° East 227 261 5,800 -844 Descending Minneapolis Center
04:22PM 44.1833 -91.3892 95° East 224 258 4,100 -978 Descending Minneapolis Center
04:23PM 44.1494 -91.3178 123° Southeast 203 234 3,600 -293 Descending Minneapolis Center
04:24PM 44.1067 -91.2872 153° Southeast 183 211 3,500 -49 Descending Minneapolis Center
04:25PM 44.0644 -91.2619 157° South 162 186 3,500 -98 Level Minneapolis Center
04:26PM 44.0161 -91.2594 178° South 166 191 3,300 -484 Descending Minneapolis Center
04:27PM 43.9761 -91.2589 179° South 154 177 2,500 -774 Descending Minneapolis Center